createdAt,value
2022-08-05T00:01:50.043Z,101456.78
2022-08-05T00:04:37.954Z,101427.00
2022-08-05T00:07:59.357Z,101452.19
2022-08-05T00:10:31.185Z,101446.72
2022-08-05T00:13:18.554Z,101431.50
2022-08-05T00:16:06.091Z,101438.63
2022-08-05T00:18:53.648Z,101434.97
2022-08-05T00:21:38.910Z,101436.69
2022-08-05T00:24:31.111Z,101434.31
2022-08-05T00:27:16.987Z,101439.03
2022-08-05T00:30:03.248Z,101434.84
2022-08-05T00:32:49.671Z,101426.47
2022-08-05T00:35:35.385Z,101405.97
2022-08-05T00:38:33.896Z,101437.94
2022-08-05T00:41:46.793Z,101430.25
2022-08-05T00:44:37.707Z,101447.72
2022-08-05T00:47:23.145Z,101448.84
2022-08-05T00:50:09.053Z,101452.44
2022-08-05T00:52:55.355Z,101446.19
2022-08-05T00:55:42.903Z,101455.09
2022-08-05T00:58:29.383Z,101451.19
2022-08-05T01:01:15.709Z,101453.81
2022-08-05T01:04:13.698Z,101462.22
2022-08-05T01:06:59.332Z,101461.09
2022-08-05T01:09:44.605Z,101428.97
2022-08-05T01:12:30.419Z,101457.03
2022-08-05T01:15:35.516Z,101449.06
2022-08-05T01:18:37.890Z,101459.97
2022-08-05T01:21:50.622Z,101471.56
2022-08-05T01:24:52.492Z,101471.00
2022-08-05T01:28:00.569Z,101482.00
2022-08-05T01:31:04.955Z,101484.22
2022-08-05T01:34:22.631Z,101477.53
2022-08-05T01:37:25.929Z,101481.28
2022-08-05T01:40:12.640Z,101488.69
2022-08-05T01:43:00.877Z,101487.31
2022-08-05T01:45:56.095Z,101489.09
2022-08-05T01:48:45.124Z,101499.56
2022-08-05T01:51:36.823Z,101502.22
2022-08-05T01:54:25.695Z,101519.81
2022-08-05T01:58:12.248Z,101488.72
2022-08-05T02:00:19.868Z,101509.16
2022-08-05T02:03:24.263Z,101474.03
2022-08-05T02:06:37.441Z,101513.47
2022-08-05T02:09:21.975Z,101511.91
2022-08-05T02:12:10.455Z,101522.09
2022-08-05T02:15:12.154Z,101507.28
2022-08-05T02:18:31.561Z,101514.22
2022-08-05T02:21:26.554Z,101512.56
2022-08-05T02:24:17.884Z,101517.28
2022-08-05T02:27:10.311Z,101516.72
2022-08-05T02:29:58.554Z,101516.72
2022-08-05T02:32:51.310Z,101491.06
2022-08-05T02:35:44.907Z,101517.75
2022-08-05T02:38:53.405Z,101522.22
2022-08-05T02:41:58.084Z,101529.84
2022-08-05T02:44:47.304Z,101518.53
2022-08-05T02:47:58.362Z,101521.47
2022-08-05T02:50:43.902Z,101534.44
2022-08-05T02:53:39.079Z,101533.88
2022-08-05T02:56:27.308Z,101534.25
2022-08-05T02:59:13.294Z,101530.81
2022-08-05T03:02:00.820Z,101542.56
2022-08-05T03:04:53.260Z,101545.81
2022-08-05T03:08:04.537Z,101515.25
2022-08-05T03:11:53.019Z,101530.63
2022-08-05T03:14:03.345Z,101547.56
2022-08-05T03:16:49.217Z,101556.47
2022-08-05T03:19:37.036Z,101545.09
2022-08-05T03:22:32.282Z,101556.16
2022-08-05T03:25:32.710Z,101560.72
2022-08-05T03:28:20.076Z,101565.56
2022-08-05T03:31:05.824Z,101554.84
2022-08-05T03:33:53.203Z,101553.03
2022-08-05T03:36:38.681Z,101552.22
2022-08-05T03:39:27.241Z,101559.34
2022-08-05T03:42:12.883Z,101558.50
2022-08-05T03:45:22.144Z,101562.00
2022-08-05T03:48:07.136Z,101547.09
2022-08-05T03:52:48.553Z,101538.94
2022-08-05T03:55:49.906Z,101555.41
2022-08-05T03:57:55.307Z,101560.25
2022-08-05T04:00:42.442Z,101556.16
2022-08-05T04:03:36.014Z,101557.97
2022-08-05T04:06:23.581Z,101560.03
2022-08-05T04:09:11.586Z,101561.22
2022-08-05T04:11:57.169Z,101550.56
2022-08-05T04:14:43.769Z,101571.81
2022-08-05T04:17:55.921Z,101572.81
2022-08-05T04:20:34.491Z,101585.06
2022-08-05T04:23:19.905Z,101595.31
2022-08-05T04:26:25.251Z,101601.19
2022-08-05T04:29:10.315Z,101606.97
2022-08-05T04:31:56.875Z,101598.78
2022-08-05T04:34:43.209Z,101615.88
2022-08-05T04:38:01.104Z,101609.72
2022-08-05T04:40:35.464Z,101618.88
2022-08-05T04:43:21.913Z,101613.22
2022-08-05T04:46:07.206Z,101600.16
2022-08-05T04:48:52.483Z,101627.53
2022-08-05T04:51:37.830Z,101627.03
2022-08-05T04:54:26.935Z,101611.66
2022-08-05T04:57:13.472Z,101621.88
2022-08-05T04:59:58.969Z,101628.84
2022-08-05T05:02:45.116Z,101621.41
2022-08-05T05:05:31.081Z,101617.06
2022-08-05T05:08:26.574Z,101638.84
2022-08-05T05:11:15.618Z,101635.13
2022-08-05T05:14:03.321Z,101628.84
2022-08-05T05:16:48.325Z,101634.38
2022-08-05T05:19:36.452Z,101648.34
2022-08-05T05:22:25.843Z,101649.66
2022-08-05T05:25:16.765Z,101623.69
2022-08-05T05:28:03.113Z,101653.84
2022-08-05T05:30:49.798Z,101661.81
2022-08-05T05:33:59.564Z,101671.06
2022-08-05T05:36:39.853Z,101675.47
2022-08-05T05:39:25.093Z,101677.19
2022-08-05T05:42:20.840Z,101678.13
2022-08-05T05:45:06.960Z,101683.31
2022-08-05T05:48:06.196Z,101691.47
2022-08-05T05:50:53.554Z,101696.38
2022-08-05T05:53:54.197Z,101694.34
2022-08-05T05:56:44.147Z,101691.81
2022-08-05T05:59:32.803Z,101690.84
2022-08-05T06:02:36.764Z,101714.16
2022-08-05T06:05:23.191Z,101691.06
2022-08-05T06:08:08.478Z,101715.38
2022-08-05T06:10:54.642Z,101728.75
2022-08-05T06:13:40.657Z,101721.66
2022-08-05T06:16:37.343Z,101724.31
2022-08-05T06:19:34.090Z,101734.53
2022-08-05T06:22:24.965Z,101743.06
2022-08-05T06:25:25.305Z,101750.56
2022-08-05T06:28:21.674Z,101749.81
2022-08-05T06:31:10.904Z,101744.03
2022-08-05T06:34:06.754Z,101745.97
2022-08-05T06:36:58.243Z,101751.75
2022-08-05T06:39:44.168Z,101755.47
2022-08-05T06:42:29.400Z,101749.34
2022-08-05T06:45:21.090Z,101744.53
2022-08-05T06:48:36.901Z,101753.09
2022-08-05T06:51:12.162Z,101752.59
2022-08-05T06:54:18.143Z,101752.59
2022-08-05T06:57:47.189Z,101750.06
2022-08-05T07:00:11.450Z,101759.81
2022-08-05T07:02:57.977Z,101770.38
2022-08-05T07:05:43.174Z,101753.94
2022-08-05T07:08:29.003Z,101768.38
2022-08-05T07:11:15.217Z,101739.38
2022-08-05T07:14:29.471Z,101773.78
2022-08-05T07:18:01.692Z,101771.50
2022-08-05T07:20:37.276Z,101779.16
2022-08-05T07:23:26.508Z,101789.97
2022-08-05T07:26:17.316Z,101790.31
2022-08-05T07:29:08.964Z,101804.13
2022-08-05T07:31:55.499Z,101794.19
2022-08-05T07:34:42.323Z,101804.06
2022-08-05T07:37:29.133Z,101816.09
2022-08-05T07:40:31.948Z,101811.38
2022-08-05T07:43:20.712Z,101807.38
2022-08-05T07:46:06.482Z,101805.91
2022-08-05T07:49:10.030Z,101815.47
2022-08-05T07:51:55.336Z,101812.31
2022-08-05T07:54:41.219Z,101813.59
2022-08-05T07:57:55.133Z,101806.22
2022-08-05T08:00:38.568Z,101815.66
2022-08-05T08:03:24.469Z,101810.94
2022-08-05T08:06:30.829Z,101805.63
2022-08-05T08:09:15.982Z,101830.75
2022-08-05T08:12:12.512Z,101818.09
2022-08-05T08:15:13.871Z,101833.94
2022-08-05T08:18:01.861Z,101834.34
2022-08-05T08:21:03.333Z,101826.63
2022-08-05T08:24:02.490Z,101833.81
2022-08-05T08:26:50.831Z,101837.22
2022-08-05T08:30:05.749Z,101850.00
2022-08-05T08:32:43.331Z,101843.28
2022-08-05T08:35:28.687Z,101854.47
2022-08-05T08:38:36.004Z,101848.34
2022-08-05T08:41:26.217Z,101837.03
2022-08-05T08:45:18.291Z,101845.47
2022-08-05T08:48:06.404Z,101846.31
2022-08-05T08:51:22.298Z,101829.06
2022-08-05T08:53:53.624Z,101844.94
2022-08-05T08:56:47.605Z,101855.59
2022-08-05T08:59:35.927Z,101850.84
2022-08-05T09:02:21.958Z,101855.03
2022-08-05T09:05:17.520Z,101830.25
2022-08-05T09:08:03.960Z,101851.94
2022-08-05T09:10:51.235Z,101871.72
2022-08-05T09:14:09.997Z,101845.50
2022-08-05T09:16:42.481Z,101866.94
2022-08-05T09:19:36.551Z,101860.38
2022-08-05T09:23:07.904Z,101866.22
2022-08-05T09:26:11.622Z,101861.16
2022-08-05T09:29:08.776Z,101850.38
2022-08-05T09:32:41.297Z,101858.06
2022-08-05T09:35:27.274Z,101872.91
2022-08-05T09:38:18.165Z,101859.31
2022-08-05T09:41:06.297Z,101860.41
2022-08-05T09:43:54.141Z,101856.47
2022-08-05T09:46:40.578Z,101849.44
2022-08-05T09:50:02.238Z,101865.84
2022-08-05T09:52:57.830Z,101864.38
2022-08-05T09:55:56.991Z,101869.72
2022-08-05T09:58:56.477Z,101855.13
2022-08-05T10:01:45.868Z,101865.69
2022-08-05T10:04:38.645Z,101873.66
2022-08-05T10:07:31.989Z,101866.19
2022-08-05T10:10:46.110Z,101881.16
2022-08-05T10:13:47.751Z,101871.50
2022-08-05T10:16:41.671Z,101869.94
2022-08-05T10:20:03.690Z,101864.56
2022-08-05T10:22:50.948Z,101869.16
2022-08-05T10:25:36.444Z,101883.50
2022-08-05T10:28:29.589Z,101857.13
2022-08-05T10:32:48.396Z,101875.25
2022-08-05T10:34:25.680Z,101879.44
2022-08-05T10:37:16.190Z,101872.47
2022-08-05T10:40:17.411Z,101870.22
2022-08-05T10:43:31.091Z,101873.78
2022-08-05T10:46:23.825Z,101876.81
2022-08-05T10:49:10.508Z,101889.06
2022-08-05T10:52:03.318Z,101884.75
2022-08-05T10:55:06.777Z,101873.81
2022-08-05T10:58:11.464Z,101891.56
2022-08-05T11:01:01.926Z,101896.44
2022-08-05T11:04:08.750Z,101899.34
2022-08-05T11:06:57.979Z,101911.25
2022-08-05T11:09:51.262Z,101901.91
2022-08-05T11:12:50.391Z,101902.97
2022-08-05T11:16:00.099Z,101887.94
2022-08-05T11:18:46.983Z,101910.41
2022-08-05T11:21:48.877Z,101890.13
2022-08-05T11:24:34.243Z,101912.44
2022-08-05T11:27:51.387Z,101903.47
2022-08-05T11:30:58.806Z,101880.72
2022-08-05T11:33:51.555Z,101916.56
2022-08-05T11:36:42.872Z,101919.09
2022-08-05T11:40:03.615Z,101926.81
2022-08-05T11:42:49.841Z,101931.50
2022-08-05T11:46:27.404Z,101921.75
2022-08-05T11:48:53.617Z,101910.66
2022-08-05T11:51:44.830Z,101924.28
2022-08-05T11:54:34.999Z,101922.41
2022-08-05T11:58:08.096Z,101932.84
2022-08-05T12:00:30.640Z,101926.94
2022-08-05T12:03:23.906Z,101936.97
2022-08-05T12:06:16.695Z,101935.91
2022-08-05T12:09:06.670Z,101938.59
2022-08-05T12:11:52.438Z,101935.78
2022-08-05T12:14:43.275Z,101934.06
2022-08-05T12:18:02.897Z,101946.97
2022-08-05T12:20:41.425Z,101949.31
2022-08-05T12:23:26.611Z,101926.19
2022-08-05T12:26:13.112Z,101938.25
2022-08-05T12:28:58.953Z,101941.94
2022-08-05T12:31:53.697Z,101947.25
2022-08-05T12:34:39.647Z,101950.06
2022-08-05T12:37:29.882Z,101951.44
2022-08-05T12:40:26.332Z,101950.84
2022-08-05T12:43:14.045Z,101952.28
2022-08-05T12:46:06.337Z,101956.13
2022-08-05T12:49:13.905Z,101946.22
2022-08-05T12:52:14.065Z,101945.97
2022-08-05T12:55:26.898Z,101964.44
2022-08-05T12:58:50.059Z,101945.03
2022-08-05T13:02:00.939Z,101958.00
2022-08-05T13:04:41.859Z,101952.00
2022-08-05T13:07:59.208Z,101968.94
2022-08-05T13:10:50.251Z,101963.47
2022-08-05T13:14:05.052Z,101972.22
2022-08-05T13:16:58.106Z,101973.50
2022-08-05T13:20:08.621Z,101980.88
2022-08-05T13:22:53.973Z,101960.91
2022-08-05T13:25:52.573Z,101971.06
2022-08-05T13:28:44.348Z,101966.94
2022-08-05T13:31:33.747Z,101958.38
2022-08-05T13:34:34.581Z,101972.03
2022-08-05T13:37:27.098Z,101975.75
2022-08-05T13:40:36.926Z,101936.59
2022-08-05T13:43:44.590Z,101974.63
2022-08-05T13:46:44.353Z,101960.06
2022-08-05T13:49:36.470Z,101966.81
2022-08-05T13:52:29.336Z,101978.81
2022-08-05T13:55:41.484Z,101984.13
2022-08-05T13:58:30.486Z,101969.63
2022-08-05T14:01:16.313Z,101982.53
2022-08-05T14:04:20.163Z,101989.28
2022-08-05T14:07:11.973Z,101997.00
2022-08-05T14:10:18.929Z,101984.16
2022-08-05T14:13:15.364Z,101989.06
2022-08-05T14:16:08.238Z,101988.09
2022-08-05T14:18:56.282Z,101984.75
2022-08-05T14:22:09.499Z,101999.00
2022-08-05T14:24:46.704Z,101982.44
2022-08-05T14:27:32.917Z,102005.31
2022-08-05T14:30:20.030Z,102006.13
2022-08-05T14:33:06.452Z,101990.91
2022-08-05T14:35:54.069Z,102006.63
2022-08-05T14:38:39.974Z,101979.34
2022-08-05T14:41:26.886Z,101981.00
2022-08-05T14:44:21.814Z,101985.81
2022-08-05T14:47:07.398Z,101987.38
2022-08-05T14:49:59.621Z,101996.16
2022-08-05T14:52:57.825Z,101997.81
2022-08-05T14:55:43.928Z,102012.84
2022-08-05T14:58:37.594Z,102002.63
2022-08-05T15:01:48.970Z,101961.94
2022-08-05T15:04:34.473Z,102010.31
2022-08-05T15:08:08.587Z,102000.13
2022-08-05T15:10:28.800Z,102003.63
2022-08-05T15:13:14.390Z,102009.59
2022-08-05T15:15:59.909Z,102003.56
2022-08-05T15:18:47.173Z,101986.75
2022-08-05T15:21:32.753Z,101995.53
2022-08-05T15:24:20.723Z,102004.41
2022-08-05T15:27:08.914Z,102001.25
2022-08-05T15:29:56.686Z,101996.88
2022-08-05T15:32:42.223Z,102008.09
2022-08-05T15:35:36.296Z,102014.13
2022-08-05T15:38:34.261Z,102010.25
2022-08-05T15:41:24.140Z,101998.84
2022-08-05T15:44:09.685Z,102009.56
2022-08-05T15:46:55.669Z,102002.50
2022-08-05T15:49:55.992Z,102010.25
2022-08-05T15:52:53.424Z,102017.38
2022-08-05T15:56:02.724Z,102013.00
2022-08-05T15:58:49.306Z,102000.41
2022-08-05T16:01:39.722Z,102002.22
2022-08-05T16:04:37.163Z,101995.91
2022-08-05T16:07:24.504Z,102002.63
2022-08-05T16:10:14.596Z,102007.81
2022-08-05T16:12:59.895Z,102006.59
2022-08-05T16:15:45.110Z,102022.31
2022-08-05T16:18:32.964Z,102013.06
2022-08-05T16:21:18.324Z,102009.19
2022-08-05T16:24:03.832Z,102016.47
2022-08-05T16:26:57.550Z,102020.19
2022-08-05T16:29:47.483Z,101989.59
2022-08-05T16:32:36.487Z,102025.47
2022-08-05T16:35:28.464Z,102024.88
2022-08-05T16:38:25.372Z,102014.09
2022-08-05T16:42:12.344Z,102012.59
2022-08-05T16:44:18.503Z,102012.31
2022-08-05T16:47:06.465Z,102012.97
2022-08-05T16:50:12.897Z,102010.59
2022-08-05T16:52:58.714Z,102008.94
2022-08-05T16:55:57.601Z,102016.13
2022-08-05T16:58:43.274Z,102010.22
2022-08-05T17:01:53.056Z,102021.16
2022-08-05T17:04:34.447Z,102014.91
2022-08-05T17:07:39.110Z,102030.75
2022-08-05T17:10:26.382Z,102011.78
2022-08-05T17:13:16.760Z,102029.84
2022-08-05T17:16:26.698Z,102017.56
2022-08-05T17:19:09.717Z,102019.63
2022-08-05T17:21:55.566Z,102022.50
2022-08-05T17:24:56.741Z,102001.38
2022-08-05T17:27:43.332Z,102006.72
2022-08-05T17:30:29.222Z,102022.00
2022-08-05T17:33:14.723Z,102018.19
2022-08-05T17:36:08.397Z,102026.72
2022-08-05T17:39:05.106Z,102016.97
2022-08-05T17:42:19.189Z,102025.38
2022-08-05T17:45:17.939Z,102024.69
2022-08-05T17:48:07.815Z,102015.75
2022-08-05T17:50:52.897Z,102029.50
2022-08-05T17:53:39.203Z,102017.03
2022-08-05T17:56:28.358Z,102028.78
2022-08-05T17:59:13.850Z,102028.56
2022-08-05T18:02:10.918Z,102028.97
2022-08-05T18:04:56.228Z,102033.88
2022-08-05T18:07:42.365Z,102044.44
2022-08-05T18:10:27.788Z,102024.53
2022-08-05T18:13:17.703Z,102047.81
2022-08-05T18:16:04.737Z,102053.16
2022-08-05T18:18:50.219Z,102044.50
2022-08-05T18:22:09.221Z,102052.19
2022-08-05T18:24:41.390Z,102052.34
2022-08-05T18:27:26.639Z,102053.19
2022-08-05T18:30:13.042Z,102062.19
2022-08-05T18:33:00.428Z,102062.88
2022-08-05T18:36:00.911Z,102049.44
2022-08-05T18:38:49.196Z,102066.97
2022-08-05T18:41:57.092Z,102072.00
2022-08-05T18:44:51.809Z,102066.25
2022-08-05T18:47:41.410Z,102068.19
2022-08-05T18:50:46.849Z,102070.88
2022-08-05T18:53:34.673Z,102073.22
2022-08-05T18:56:28.357Z,102066.72
2022-08-05T18:59:43.000Z,102077.22
2022-08-05T19:02:36.492Z,102063.47
2022-08-05T19:06:11.690Z,102087.28
2022-08-05T19:08:30.148Z,102085.16
2022-08-05T19:11:16.205Z,102090.03
2022-08-05T19:14:52.397Z,102079.63
2022-08-05T19:17:19.407Z,102092.38
2022-08-05T19:20:06.634Z,102101.84
2022-08-05T19:22:53.242Z,102091.28
2022-08-05T19:25:43.326Z,102097.78
2022-08-05T19:28:29.113Z,102085.22
2022-08-05T19:31:18.088Z,102092.00
2022-08-05T19:34:05.134Z,102101.72
2022-08-05T19:36:51.124Z,102111.63
2022-08-05T19:39:45.723Z,102117.22
2022-08-05T19:42:37.012Z,102116.63
2022-08-05T19:45:25.526Z,102116.53
2022-08-05T19:48:14.242Z,102131.06
2022-08-05T19:50:59.959Z,102134.81
2022-08-05T19:54:03.721Z,102151.00
2022-08-05T19:56:50.926Z,102144.84
2022-08-05T19:59:55.177Z,102128.22
2022-08-05T20:02:42.182Z,102132.78
2022-08-05T20:05:27.405Z,102137.88
2022-08-05T20:08:28.930Z,102149.25
2022-08-05T20:11:14.292Z,102166.63
2022-08-05T20:14:12.330Z,102163.25
2022-08-05T20:17:03.388Z,102177.50
2022-08-05T20:19:56.601Z,102155.78
2022-08-05T20:22:44.168Z,102173.53
2022-08-05T20:25:33.773Z,102180.16
2022-08-05T20:28:24.995Z,102187.13
2022-08-05T20:31:12.774Z,102182.47
2022-08-05T20:33:58.010Z,102200.56
2022-08-05T20:36:43.841Z,102206.56
2022-08-05T20:39:35.490Z,102205.47
2022-08-05T20:42:21.865Z,102206.88
2022-08-05T20:45:08.427Z,102214.56
2022-08-05T20:47:53.702Z,102219.91
2022-08-05T20:50:45.344Z,102206.63
2022-08-05T20:53:37.057Z,102212.16
2022-08-05T20:56:29.141Z,102207.28
2022-08-05T20:59:19.236Z,102217.25
2022-08-05T21:02:12.347Z,102211.34
2022-08-05T21:05:03.648Z,102217.94
2022-08-05T21:07:52.096Z,102221.38
2022-08-05T21:10:37.523Z,102220.75
2022-08-05T21:13:47.112Z,102220.56
2022-08-05T21:16:33.505Z,102232.19
2022-08-05T21:19:20.344Z,102235.59
2022-08-05T21:22:09.469Z,102244.91
2022-08-05T21:24:54.800Z,102249.56
2022-08-05T21:27:40.277Z,102248.53
2022-08-05T21:30:32.718Z,102258.03
2022-08-05T21:33:22.267Z,102228.94
2022-08-05T21:36:09.105Z,102259.63
2022-08-05T21:38:55.271Z,102256.97
2022-08-05T21:41:40.374Z,102254.03
2022-08-05T21:44:26.994Z,102258.13
2022-08-05T21:47:32.795Z,102267.78
2022-08-05T21:50:17.456Z,102272.63
2022-08-05T21:53:04.303Z,102276.53
2022-08-05T21:56:06.258Z,102283.09
2022-08-05T21:58:57.514Z,102289.34
2022-08-05T22:01:43.335Z,102289.66
2022-08-05T22:04:31.455Z,102267.09
2022-08-05T22:07:16.688Z,102279.16
2022-08-05T22:10:02.101Z,102283.50
2022-08-05T22:12:50.867Z,102289.75
2022-08-05T22:16:01.397Z,102294.81
2022-08-05T22:18:42.156Z,102306.66
2022-08-05T22:21:34.164Z,102307.53
2022-08-05T22:24:40.486Z,102293.13
2022-08-05T22:28:08.305Z,102311.09
2022-08-05T22:30:56.903Z,102302.81
2022-08-05T22:33:56.705Z,102304.94
2022-08-05T22:36:45.738Z,102302.97
2022-08-05T22:39:34.484Z,102295.75
2022-08-05T22:42:26.047Z,102323.78
2022-08-05T22:45:11.601Z,102297.91
2022-08-05T22:47:57.287Z,102328.25
2022-08-05T22:50:46.208Z,102317.91
2022-08-05T22:53:41.124Z,102332.50
2022-08-05T22:56:30.742Z,102336.09
2022-08-05T22:59:45.304Z,102352.78
2022-08-05T23:02:28.864Z,102338.84
2022-08-05T23:05:16.345Z,102358.53
2022-08-05T23:08:01.324Z,102344.13
2022-08-05T23:10:46.584Z,102362.19
2022-08-05T23:13:31.902Z,102365.41
2022-08-05T23:16:39.671Z,102365.72
2022-08-05T23:19:29.151Z,102368.63
2022-08-05T23:22:27.207Z,102335.53
2022-08-05T23:25:12.830Z,102377.69
2022-08-05T23:28:02.479Z,102376.06
2022-08-05T23:30:53.152Z,102371.28
2022-08-05T23:34:05.615Z,102364.75
2022-08-05T23:36:45.041Z,102361.66
2022-08-05T23:39:32.045Z,102379.22
2022-08-05T23:42:29.920Z,102377.69
2022-08-05T23:45:15.728Z,102382.78
2022-08-05T23:48:03.108Z,102380.34
2022-08-05T23:50:49.699Z,102384.78
2022-08-05T23:53:46.732Z,102376.16
2022-08-05T23:56:32.754Z,102387.94
2022-08-05T23:59:19.521Z,102388.97
